Archival Weather

Republic

Farmingdale, New York (KFRG)

Report from: Monday, February 12, 2024 8:53 AM EST
Current time: Saturday, June 22, 2024 6:38 AM EDT

Current weather – Weather history – Daily summaries
Weather forecast

Temperature3.9°C (39.0°F)
Wind chill1.1°C (34.0°F)
Dew point-1.7°C (28.9°F)
Winds 6 kts (3.1 m/s, 6.9 mph) North (350°)
Visibility10 mi. (16.1 km)
Clouds Sky clear
Altimeter29.93 in.Hg (1014 mB)
Relative humidity67 %
Density altitude-1,277 ft. (-389 m)
Sea-level pressure101.4 kPa (1014 mB, 29.93 in.Hg)
Remarks Fully automated report
Automated weather observing station without precipitation discriminator
Flight conditions Visual Meteorological Conditions
Raw dataKFRG 121353Z AUTO 35006KT 10SM CLR 04/M02 A2993 RMK AO1 SLP137 T00391017
An error has occurred. This application may no longer respond until reloaded. Reload 🗙